Terminal Aerodrome Forecast
Issued by NWS

Home | Current Version | Previous Version | Text Only | Print | Product List | Glossary On
Versions: 1 2 3 4 5 6 7 8 9 10 11 12 13 14 15 16 17 18 19 20 21 22
000
FTUS43 KDLH 180500
TAFHYR
TAF
KHYR 180535Z 1806/1906 30007KT P6SM SCT025 BKN035
      TEMPO 1806/1810 6SM -SN BKN025 OVC035
     FM181000 28003KT P6SM BKN025
     FM181800 26005KT P6SM BKN035
     FM190300 19004KT P6SM BKN025=

USA.gov is the U.S. government's official web portal to all federal, state and local government web resources and services.